Terminal Aerodrome Forecast
Issued by NWS Mt. Holly, NJ

Home | Current Version | Previous Version | Text Only | Print | Product List | Glossary On
Versions: 1 2 3 4 5 6 7 8 9 10 11 12 13 14 15 16 17 18 19 20 21 22 23 24 25 26 27 28 29
684
FTUS41 KPHI 241740
TAFRDG
TAF
KRDG 241740Z 2418/2518 33006KT P6SM VCSH SCT040
     FM242000 30006KT P6SM VCTS BKN050CB
      TEMPO 2421/2424 4SM -TSRA OVC025CB
     FM250100 VRB03KT P6SM BKN025
     FM250800 VRB02KT 4SM BR BKN015
     FM251500 33006KT P6SM OVC025=

USA.gov is the U.S. government's official web portal to all federal, state and local government web resources and services.